Aeroporto :
LOGIN :

Iscrizione | Disclaimer

   EN    FR    IT 

 










Sommario :    VFR   VFR Marginale   IFR   IFR Intensivo   IFR Molto Intensivo
Visibilità : 
Base nubi : 
>= 8 km
>= 3000ft
5 / 8 km
1000 / 3000 ft
1500m / 5 km
500 / 1000 ft
800 / 1500m
200 / 500 ft
< 800m
< 200 ft
Simboli :   Temporali  Nebbia  Neve Forte  Precipitazioni Forti  Vento > 20 kt
SIGMETs :   Varie  Temporali  Ghiacco  Turbolenza  Onda orograficha  Ceneri Vulcaniche







- Altitudine del aeroporto : 1058 ft
- Codice IATA : SCN


EDDR - Saarbrücken

METARs OBSOLETI :
  • 181920Z 25006KT 9999 FEW035 18/17 Q1012 NOSIG
  • 181850Z 28008KT 9999 FEW035 18/17 Q1011 NOSIG
  • 181820Z 28008KT 9999 -SHRA FEW035 FEW042CB 18/17 Q1011 NOSIG
  • 181750Z 27011KT 9999 -SHRA FEW035 SCT042CB 19/18 Q1012 TEMPO SHRA
  • 181720Z 28008KT 9999 FEW042CB 19/18 Q1011 NOSIG
  • 181650Z 27009KT 9999 SCT042CB 19/17 Q1011 NOSIG

TAF TAF EDDR
Valido dal 18 a 18 ore il 19 a 18 ore UTC


181700Z 1818/1918 24011KT 9999 SCT030
PROB30
TEMPO 1818/1821 24020G40KT 3000 TSRA BKN014CB
BECMG 1821/1823 25006KT
PROB30
TEMPO 1821/1906 4000 BCFG BKN004
Nessun NOTAM noto per questo aeroporto.



MetMap, La meteo Aeronautica in un colpo d'occhio ! - Copyright ORBIFLY Dicembre 2007 - Disclaimer

ORBIFLY MET'MAP TEAM :

Programmazione e sviluppo : Alexandra Zaïnal
Concezione e sviluppo : Baudouin d'Aumeries
Co-Programmazione e sviluppo : Marc-Olivier Méhu
Supporto tecnico e logistico : Manuel Goepfert
Aiuto per la traduzione : Arnaldo La Scala

Contatto : metmap@orbifly.com




FONTI E CREDITI :

   NOAA